sensor_id;sensor_type;location;lat;lon;timestamp;temperature;humidity
40670;DHT22;26355;45.528;9.234;2023-02-15T00:00:39;11.20;99.70
40670;DHT22;26355;45.528;9.234;2023-02-15T00:03:05;11.10;99.70
40670;DHT22;26355;45.528;9.234;2023-02-15T00:05:30;11.20;99.60
40670;DHT22;26355;45.528;9.234;2023-02-15T00:07:56;11.10;99.70
40670;DHT22;26355;45.528;9.234;2023-02-15T00:10:21;11.10;99.80
40670;DHT22;26355;45.528;9.234;2023-02-15T00:12:48;11.10;99.90
40670;DHT22;26355;45.528;9.234;2023-02-15T00:15:14;11.00;99.80
40670;DHT22;26355;45.528;9.234;2023-02-15T00:17:39;11.10;99.80
40670;DHT22;26355;45.528;9.234;2023-02-15T00:20:05;11.10;99.80
40670;DHT22;26355;45.528;9.234;2023-02-15T00:22:30;11.20;99.90
40670;DHT22;26355;45.528;9.234;2023-02-15T00:24:56;11.00;99.90
40670;DHT22;26355;45.528;9.234;2023-02-15T00:27:21;10.90;99.70
40670;DHT22;26355;45.528;9.234;2023-02-15T00:29:47;10.80;99.80
40670;DHT22;26355;45.528;9.234;2023-02-15T00:32:13;10.90;99.90
40670;DHT22;26355;45.528;9.234;2023-02-15T00:34:38;10.80;99.90
40670;DHT22;26355;45.528;9.234;2023-02-15T00:37:03;10.80;99.90
40670;DHT22;26355;45.528;9.234;2023-02-15T00:39:29;10.80;99.90
40670;DHT22;26355;45.528;9.234;2023-02-15T00:41:54;11.30;99.90
40670;DHT22;26355;45.528;9.234;2023-02-15T00:44:20;10.80;99.90
40670;DHT22;26355;45.528;9.234;2023-02-15T00:46:45;10.50;99.90
40670;DHT22;26355;45.528;9.234;2023-02-15T00:49:11;10.60;99.90
40670;DHT22;26355;45.528;9.234;2023-02-15T00:51:37;10.60;99.90
40670;DHT22;26355;45.528;9.234;2023-02-15T00:54:02;10.60;99.90
40670;DHT22;26355;45.528;9.234;2023-02-15T00:56:28;10.70;99.90
40670;DHT22;26355;45.528;9.234;2023-02-15T00:58:53;10.30;99.90
40670;DHT22;26355;45.528;9.234;2023-02-15T01:01:19;10.40;99.90
40670;DHT22;26355;45.528;9.234;2023-02-15T01:03:45;10.30;99.90
40670;DHT22;26355;45.528;9.234;2023-02-15T01:06:11;10.20;99.90
40670;DHT22;26355;45.528;9.234;2023-02-15T01:08:37;10.30;99.90
40670;DHT22;26355;45.528;9.234;2023-02-15T01:11:04;10.30;99.90
40670;DHT22;26355;45.528;9.234;2023-02-15T01:13:30;10.30;99.90
40670;DHT22;26355;45.528;9.234;2023-02-15T01:15:55;10.30;99.90
40670;DHT22;26355;45.528;9.234;2023-02-15T01:18:21;10.20;99.90
40670;DHT22;26355;45.528;9.234;2023-02-15T01:20:47;10.30;99.90
40670;DHT22;26355;45.528;9.234;2023-02-15T01:23:12;10.40;99.90
40670;DHT22;26355;45.528;9.234;2023-02-15T01:25:38;10.10;99.90
40670;DHT22;26355;45.528;9.234;2023-02-15T01:28:04;10.10;99.90
40670;DHT22;26355;45.528;9.234;2023-02-15T01:30:29;10.60;99.90
40670;DHT22;26355;45.528;9.234;2023-02-15T01:32:55;10.10;99.90
40670;DHT22;26355;45.528;9.234;2023-02-15T01:35:21;10.10;99.90
40670;DHT22;26355;45.528;9.234;2023-02-15T01:37:46;10.10;99.90
40670;DHT22;26355;45.528;9.234;2023-02-15T01:40:12;10.00;99.90
40670;DHT22;26355;45.528;9.234;2023-02-15T01:42:38;10.10;99.90
40670;DHT22;26355;45.528;9.234;2023-02-15T01:45:05;9.90;99.90
40670;DHT22;26355;45.528;9.234;2023-02-15T01:47:44;10.00;99.90
40670;DHT22;26355;45.528;9.234;2023-02-15T01:52:40;9.80;99.90
40670;DHT22;26355;45.528;9.234;2023-02-15T01:55:09;9.80;99.90
40670;DHT22;26355;45.528;9.234;2023-02-15T01:57:35;9.80;99.90
40670;DHT22;26355;45.528;9.234;2023-02-15T02:00:01;9.80;99.90
40670;DHT22;26355;45.528;9.234;2023-02-15T02:02:28;9.80;99.90
40670;DHT22;26355;45.528;9.234;2023-02-15T02:04:54;9.70;99.90
40670;DHT22;26355;45.528;9.234;2023-02-15T02:07:23;9.60;99.90
40670;DHT22;26355;45.528;9.234;2023-02-15T02:09:49;9.70;99.90
40670;DHT22;26355;45.528;9.234;2023-02-15T02:12:15;9.70;99.90
40670;DHT22;26355;45.528;9.234;2023-02-15T02:14:41;10.80;99.90
40670;DHT22;26355;45.528;9.234;2023-02-15T02:25:08;9.60;99.90
40670;DHT22;26355;45.528;9.234;2023-02-15T02:30:26;9.80;99.90
40670;DHT22;26355;45.528;9.234;2023-02-15T02:35:34;9.50;99.90
40670;DHT22;26355;45.528;9.234;2023-02-15T02:38:08;9.60;99.90
40670;DHT22;26355;45.528;9.234;2023-02-15T02:40:59;9.60;99.90
40670;DHT22;26355;45.528;9.234;2023-02-15T02:43:38;9.60;99.90
40670;DHT22;26355;45.528;9.234;2023-02-15T02:46:07;9.70;99.90
40670;DHT22;26355;45.528;9.234;2023-02-15T02:48:34;9.80;99.90
40670;DHT22;26355;45.528;9.234;2023-02-15T02:51:00;9.70;99.90
40670;DHT22;26355;45.528;9.234;2023-02-15T02:53:26;9.60;99.90
40670;DHT22;26355;45.528;9.234;2023-02-15T02:55:56;9.70;99.90
40670;DHT22;26355;45.528;9.234;2023-02-15T02:58:24;9.50;99.90
40670;DHT22;26355;45.528;9.234;2023-02-15T03:00:59;9.60;99.90
40670;DHT22;26355;45.528;9.234;2023-02-15T03:03:34;9.90;99.90
40670;DHT22;26355;45.528;9.234;2023-02-15T03:06:03;9.90;99.90
40670;DHT22;26355;45.528;9.234;2023-02-15T03:08:32;9.50;99.90
40670;DHT22;26355;45.528;9.234;2023-02-15T03:10:59;10.00;99.90
40670;DHT22;26355;45.528;9.234;2023-02-15T03:13:25;9.20;99.90
40670;DHT22;26355;45.528;9.234;2023-02-15T03:15:51;9.60;99.90
40670;DHT22;26355;45.528;9.234;2023-02-15T03:18:38;9.40;99.90
40670;DHT22;26355;45.528;9.234;2023-02-15T03:21:04;10.20;99.90
40670;DHT22;26355;45.528;9.234;2023-02-15T03:23:31;9.40;99.90
40670;DHT22;26355;45.528;9.234;2023-02-15T03:26:01;9.50;99.90
40670;DHT22;26355;45.528;9.234;2023-02-15T03:28:29;9.30;99.90
40670;DHT22;26355;45.528;9.234;2023-02-15T03:30:57;9.20;99.90
40670;DHT22;26355;45.528;9.234;2023-02-15T03:33:24;9.60;99.90
40670;DHT22;26355;45.528;9.234;2023-02-15T03:35:56;9.40;99.90
40670;DHT22;26355;45.528;9.234;2023-02-15T03:38:29;9.40;99.90
40670;DHT22;26355;45.528;9.234;2023-02-15T03:40:59;9.30;99.90
40670;DHT22;26355;45.528;9.234;2023-02-15T03:46:32;9.50;99.90
40670;DHT22;26355;45.528;9.234;2023-02-15T03:49:01;9.30;99.90
40670;DHT22;26355;45.528;9.234;2023-02-15T03:51:28;9.10;99.90
40670;DHT22;26355;45.528;9.234;2023-02-15T03:54:04;9.20;99.90
40670;DHT22;26355;45.528;9.234;2023-02-15T03:56:32;9.30;99.90
40670;DHT22;26355;45.528;9.234;2023-02-15T03:58:58;9.20;99.90
40670;DHT22;26355;45.528;9.234;2023-02-15T04:01:47;9.50;99.90
40670;DHT22;26355;45.528;9.234;2023-02-15T04:04:29;9.30;99.90
40670;DHT22;26355;45.528;9.234;2023-02-15T04:06:57;9.20;99.90
40670;DHT22;26355;45.528;9.234;2023-02-15T04:09:22;9.20;99.90
40670;DHT22;26355;45.528;9.234;2023-02-15T04:12:06;9.10;99.90
40670;DHT22;26355;45.528;9.234;2023-02-15T04:14:32;9.30;99.90
40670;DHT22;26355;45.528;9.234;2023-02-15T04:17:16;9.00;99.90
40670;DHT22;26355;45.528;9.234;2023-02-15T04:19:41;9.00;99.90
40670;DHT22;26355;45.528;9.234;2023-02-15T04:22:25;8.90;99.90
40670;DHT22;26355;45.528;9.234;2023-02-15T04:25:10;8.90;99.90
40670;DHT22;26355;45.528;9.234;2023-02-15T04:27:36;9.10;99.90
40670;DHT22;26355;45.528;9.234;2023-02-15T04:30:02;8.90;99.90
40670;DHT22;26355;45.528;9.234;2023-02-15T04:32:28;8.90;99.90
40670;DHT22;26355;45.528;9.234;2023-02-15T04:34:53;8.90;99.90
40670;DHT22;26355;45.528;9.234;2023-02-15T04:37:19;9.20;99.90
40670;DHT22;26355;45.528;9.234;2023-02-15T04:39:44;9.00;99.90
40670;DHT22;26355;45.528;9.234;2023-02-15T04:42:10;8.90;99.90
40670;DHT22;26355;45.528;9.234;2023-02-15T04:44:35;9.00;99.90
40670;DHT22;26355;45.528;9.234;2023-02-15T04:47:01;9.50;99.90
40670;DHT22;26355;45.528;9.234;2023-02-15T04:49:26;9.00;99.90
40670;DHT22;26355;45.528;9.234;2023-02-15T04:51:52;9.10;99.90
40670;DHT22;26355;45.528;9.234;2023-02-15T04:54:17;8.80;99.90
40670;DHT22;26355;45.528;9.234;2023-02-15T04:56:42;8.70;99.90
40670;DHT22;26355;45.528;9.234;2023-02-15T04:59:11;8.20;99.90
40670;DHT22;26355;45.528;9.234;2023-02-15T05:01:37;8.70;99.90
40670;DHT22;26355;45.528;9.234;2023-02-15T05:04:02;8.80;99.90
40670;DHT22;26355;45.528;9.234;2023-02-15T05:06:28;8.20;99.90
40670;DHT22;26355;45.528;9.234;2023-02-15T05:08:54;8.70;99.90
40670;DHT22;26355;45.528;9.234;2023-02-15T05:11:19;9.70;99.90
40670;DHT22;26355;45.528;9.234;2023-02-15T05:13:44;8.80;99.90
40670;DHT22;26355;45.528;9.234;2023-02-15T05:16:10;8.70;99.90
40670;DHT22;26355;45.528;9.234;2023-02-15T05:18:35;8.80;99.90
40670;DHT22;26355;45.528;9.234;2023-02-15T05:21:01;8.70;99.90
40670;DHT22;26355;45.528;9.234;2023-02-15T05:23:26;8.80;99.90
40670;DHT22;26355;45.528;9.234;2023-02-15T05:25:52;8.60;99.90
40670;DHT22;26355;45.528;9.234;2023-02-15T05:28:36;9.10;99.90
40670;DHT22;26355;45.528;9.234;2023-02-15T05:31:04;8.90;99.90
40670;DHT22;26355;45.528;9.234;2023-02-15T05:33:30;8.80;99.90
40670;DHT22;26355;45.528;9.234;2023-02-15T05:35:55;8.90;99.90
40670;DHT22;26355;45.528;9.234;2023-02-15T05:38:21;9.20;99.90
40670;DHT22;26355;45.528;9.234;2023-02-15T05:40:46;9.30;99.90
40670;DHT22;26355;45.528;9.234;2023-02-15T05:43:12;9.00;99.90
40670;DHT22;26355;45.528;9.234;2023-02-15T05:45:37;9.20;99.90
40670;DHT22;26355;45.528;9.234;2023-02-15T05:48:02;9.10;99.90
40670;DHT22;26355;45.528;9.234;2023-02-15T05:50:28;8.70;99.90
40670;DHT22;26355;45.528;9.234;2023-02-15T05:52:53;9.80;99.90
40670;DHT22;26355;45.528;9.234;2023-02-15T05:55:19;9.30;99.90
40670;DHT22;26355;45.528;9.234;2023-02-15T05:57:44;8.80;99.90
40670;DHT22;26355;45.528;9.234;2023-02-15T06:00:10;9.30;99.90
40670;DHT22;26355;45.528;9.234;2023-02-15T06:02:37;9.20;99.90
40670;DHT22;26355;45.528;9.234;2023-02-15T06:05:03;10.30;99.90
40670;DHT22;26355;45.528;9.234;2023-02-15T06:07:29;9.30;99.90
40670;DHT22;26355;45.528;9.234;2023-02-15T06:09:55;9.70;99.90
40670;DHT22;26355;45.528;9.234;2023-02-15T06:12:20;9.70;99.90
40670;DHT22;26355;45.528;9.234;2023-02-15T06:14:46;9.10;99.90
40670;DHT22;26355;45.528;9.234;2023-02-15T06:17:11;9.00;99.90
40670;DHT22;26355;45.528;9.234;2023-02-15T06:19:37;9.40;99.90
40670;DHT22;26355;45.528;9.234;2023-02-15T06:22:02;9.00;99.90
40670;DHT22;26355;45.528;9.234;2023-02-15T06:24:28;9.30;99.90
40670;DHT22;26355;45.528;9.234;2023-02-15T06:26:53;9.50;99.90
40670;DHT22;26355;45.528;9.234;2023-02-15T06:29:19;9.60;99.90
40670;DHT22;26355;45.528;9.234;2023-02-15T06:31:44;9.50;99.90
40670;DHT22;26355;45.528;9.234;2023-02-15T06:34:10;10.60;99.90
40670;DHT22;26355;45.528;9.234;2023-02-15T06:36:35;10.10;99.90
40670;DHT22;26355;45.528;9.234;2023-02-15T06:39:02;8.80;99.90
40670;DHT22;26355;45.528;9.234;2023-02-15T06:41:28;9.50;99.90
40670;DHT22;26355;45.528;9.234;2023-02-15T06:43:53;9.50;99.90
40670;DHT22;26355;45.528;9.234;2023-02-15T06:46:19;9.80;99.90
40670;DHT22;26355;45.528;9.234;2023-02-15T06:48:44;10.10;99.90
40670;DHT22;26355;45.528;9.234;2023-02-15T06:51:10;9.50;99.90
40670;DHT22;26355;45.528;9.234;2023-02-15T06:53:35;10.10;99.90
40670;DHT22;26355;45.528;9.234;2023-02-15T06:56:01;9.60;99.90
40670;DHT22;26355;45.528;9.234;2023-02-15T06:58:28;10.50;99.90
40670;DHT22;26355;45.528;9.234;2023-02-15T07:00:53;9.70;99.90
40670;DHT22;26355;45.528;9.234;2023-02-15T07:03:19;10.00;99.90
40670;DHT22;26355;45.528;9.234;2023-02-15T07:05:44;10.40;99.90
40670;DHT22;26355;45.528;9.234;2023-02-15T07:08:10;11.00;99.90
40670;DHT22;26355;45.528;9.234;2023-02-15T07:10:36;11.70;99.90
40670;DHT22;26355;45.528;9.234;2023-02-15T07:13:01;11.10;99.30
40670;DHT22;26355;45.528;9.234;2023-02-15T07:15:27;11.50;99.20
40670;DHT22;26355;45.528;9.234;2023-02-15T07:17:52;11.90;99.10
40670;DHT22;26355;45.528;9.234;2023-02-15T07:20:22;12.80;98.80
40670;DHT22;26355;45.528;9.234;2023-02-15T07:22:48;12.00;98.30
40670;DHT22;26355;45.528;9.234;2023-02-15T07:25:14;12.10;97.90
40670;DHT22;26355;45.528;9.234;2023-02-15T07:27:39;12.90;97.70
40670;DHT22;26355;45.528;9.234;2023-02-15T07:30:06;13.20;97.00
40670;DHT22;26355;45.528;9.234;2023-02-15T07:32:32;13.70;96.30
40670;DHT22;26355;45.528;9.234;2023-02-15T07:34:58;14.40;95.60
40670;DHT22;26355;45.528;9.234;2023-02-15T07:37:24;14.80;94.90
40670;DHT22;26355;45.528;9.234;2023-02-15T07:39:49;15.30;94.30
40670;DHT22;26355;45.528;9.234;2023-02-15T07:42:15;15.50;93.80
40670;DHT22;26355;45.528;9.234;2023-02-15T07:44:40;15.90;93.40
40670;DHT22;26355;45.528;9.234;2023-02-15T07:47:06;16.50;92.90
40670;DHT22;26355;45.528;9.234;2023-02-15T07:49:31;16.60;92.50
40670;DHT22;26355;45.528;9.234;2023-02-15T07:51:57;17.00;92.00
40670;DHT22;26355;45.528;9.234;2023-02-15T07:54:22;17.20;91.40
40670;DHT22;26355;45.528;9.234;2023-02-15T07:56:48;17.30;91.40
40670;DHT22;26355;45.528;9.234;2023-02-15T07:59:13;17.50;91.00
40670;DHT22;26355;45.528;9.234;2023-02-15T08:01:39;17.60;90.90
40670;DHT22;26355;45.528;9.234;2023-02-15T08:04:05;17.80;90.60
40670;DHT22;26355;45.528;9.234;2023-02-15T08:06:34;18.20;90.30
40670;DHT22;26355;45.528;9.234;2023-02-15T08:09:02;18.20;89.30
40670;DHT22;26355;45.528;9.234;2023-02-15T08:11:29;18.50;89.50
40670;DHT22;26355;45.528;9.234;2023-02-15T08:13:59;18.60;88.80
40670;DHT22;26355;45.528;9.234;2023-02-15T08:16:29;18.50;88.10
40670;DHT22;26355;45.528;9.234;2023-02-15T08:18:55;18.60;87.90
40670;DHT22;26355;45.528;9.234;2023-02-15T08:21:21;18.90;87.60
40670;DHT22;26355;45.528;9.234;2023-02-15T08:23:47;18.80;87.50
40670;DHT22;26355;45.528;9.234;2023-02-15T08:26:12;18.80;87.20
40670;DHT22;26355;45.528;9.234;2023-02-15T08:28:38;18.60;87.00
40670;DHT22;26355;45.528;9.234;2023-02-15T08:31:07;18.30;87.40
40670;DHT22;26355;45.528;9.234;2023-02-15T08:33:33;17.90;87.70
40670;DHT22;26355;45.528;9.234;2023-02-15T08:36:06;17.50;88.00
40670;DHT22;26355;45.528;9.234;2023-02-15T08:38:32;17.30;88.20
40670;DHT22;26355;45.528;9.234;2023-02-15T08:41:08;16.90;89.00
40670;DHT22;26355;45.528;9.234;2023-02-15T08:43:34;16.70;90.00
40670;DHT22;26355;45.528;9.234;2023-02-15T08:45:59;16.60;90.20
40670;DHT22;26355;45.528;9.234;2023-02-15T08:48:24;16.60;90.20
40670;DHT22;26355;45.528;9.234;2023-02-15T08:50:50;16.50;90.20
40670;DHT22;26355;45.528;9.234;2023-02-15T08:53:15;16.70;90.30
40670;DHT22;26355;45.528;9.234;2023-02-15T08:55:41;16.70;90.30
40670;DHT22;26355;45.528;9.234;2023-02-15T08:58:06;16.70;90.30
40670;DHT22;26355;45.528;9.234;2023-02-15T09:00:32;16.90;90.20
40670;DHT22;26355;45.528;9.234;2023-02-15T09:02:57;17.10;90.20
40670;DHT22;26355;45.528;9.234;2023-02-15T09:05:23;17.10;87.00
40670;DHT22;26355;45.528;9.234;2023-02-15T09:07:49;16.90;86.20
40670;DHT22;26355;45.528;9.234;2023-02-15T09:10:14;16.90;86.00
40670;DHT22;26355;45.528;9.234;2023-02-15T09:12:40;16.90;86.40
40670;DHT22;26355;45.528;9.234;2023-02-15T09:15:06;17.00;85.80
40670;DHT22;26355;45.528;9.234;2023-02-15T09:17:31;17.10;86.20
40670;DHT22;26355;45.528;9.234;2023-02-15T09:19:57;17.20;85.80
40670;DHT22;26355;45.528;9.234;2023-02-15T09:22:22;17.40;85.40
40670;DHT22;26355;45.528;9.234;2023-02-15T09:24:47;17.40;84.90
40670;DHT22;26355;45.528;9.234;2023-02-15T09:27:13;17.80;85.50
40670;DHT22;26355;45.528;9.234;2023-02-15T09:29:38;17.70;86.60
40670;DHT22;26355;45.528;9.234;2023-02-15T09:32:04;17.80;84.80
40670;DHT22;26355;45.528;9.234;2023-02-15T09:34:30;17.90;86.40
40670;DHT22;26355;45.528;9.234;2023-02-15T09:36:55;18.00;85.00
40670;DHT22;26355;45.528;9.234;2023-02-15T09:39:24;18.00;85.20
40670;DHT22;26355;45.528;9.234;2023-02-15T09:52:09;18.30;85.10
40670;DHT22;26355;45.528;9.234;2023-02-15T09:54:49;18.60;85.60
40670;DHT22;26355;45.528;9.234;2023-02-15T09:57:19;18.60;83.70
40670;DHT22;26355;45.528;9.234;2023-02-15T09:59:53;18.80;83.80
40670;DHT22;26355;45.528;9.234;2023-02-15T10:04:53;19.00;82.40
40670;DHT22;26355;45.528;9.234;2023-02-15T10:12:30;19.60;82.90
40670;DHT22;26355;45.528;9.234;2023-02-15T10:19:53;19.80;80.80
40670;DHT22;26355;45.528;9.234;2023-02-15T10:24:58;19.90;79.50
40670;DHT22;26355;45.528;9.234;2023-02-15T10:27:27;19.90;79.90
40670;DHT22;26355;45.528;9.234;2023-02-15T10:30:10;20.00;79.40
40670;DHT22;26355;45.528;9.234;2023-02-15T10:32:39;19.90;79.10
40670;DHT22;26355;45.528;9.234;2023-02-15T10:35:52;20.00;79.70
40670;DHT22;26355;45.528;9.234;2023-02-15T10:43:07;20.30;78.10
40670;DHT22;26355;45.528;9.234;2023-02-15T10:45:43;20.30;77.10
40670;DHT22;26355;45.528;9.234;2023-02-15T10:50:46;20.30;77.00
40670;DHT22;26355;45.528;9.234;2023-02-15T11:03:53;21.10;75.70
40670;DHT22;26355;45.528;9.234;2023-02-15T11:06:06;21.10;74.40
40670;DHT22;26355;45.528;9.234;2023-02-15T11:08:37;21.00;74.90
40670;DHT22;26355;45.528;9.234;2023-02-15T11:11:05;21.20;75.30
40670;DHT22;26355;45.528;9.234;2023-02-15T11:13:33;21.40;75.00
40670;DHT22;26355;45.528;9.234;2023-02-15T11:16:43;21.70;75.70
40670;DHT22;26355;45.528;9.234;2023-02-15T11:18:51;21.90;75.20
40670;DHT22;26355;45.528;9.234;2023-02-15T11:23:44;22.20;73.80
40670;DHT22;26355;45.528;9.234;2023-02-15T11:26:12;22.40;72.20
40670;DHT22;26355;45.528;9.234;2023-02-15T11:31:20;22.50;71.00
40670;DHT22;26355;45.528;9.234;2023-02-15T11:33:48;22.70;71.30
40670;DHT22;26355;45.528;9.234;2023-02-15T11:36:25;22.60;69.30
40670;DHT22;26355;45.528;9.234;2023-02-15T11:38:56;22.60;68.80
40670;DHT22;26355;45.528;9.234;2023-02-15T11:41:24;22.60;70.00
40670;DHT22;26355;45.528;9.234;2023-02-15T11:46:20;22.80;68.80
40670;DHT22;26355;45.528;9.234;2023-02-15T11:48:46;22.60;69.00
40670;DHT22;26355;45.528;9.234;2023-02-15T11:51:13;22.60;69.80
40670;DHT22;26355;45.528;9.234;2023-02-15T11:53:39;22.60;69.20
40670;DHT22;26355;45.528;9.234;2023-02-15T11:56:05;22.60;69.70
40670;DHT22;26355;45.528;9.234;2023-02-15T11:58:39;22.70;69.00
40670;DHT22;26355;45.528;9.234;2023-02-15T12:01:10;22.70;68.90
40670;DHT22;26355;45.528;9.234;2023-02-15T12:06:13;22.50;69.10
40670;DHT22;26355;45.528;9.234;2023-02-15T12:08:42;22.50;69.90
40670;DHT22;26355;45.528;9.234;2023-02-15T12:11:10;22.60;69.40
40670;DHT22;26355;45.528;9.234;2023-02-15T12:13:57;22.60;69.40
40670;DHT22;26355;45.528;9.234;2023-02-15T12:16:23;22.50;68.60
40670;DHT22;26355;45.528;9.234;2023-02-15T12:18:48;22.30;69.60
40670;DHT22;26355;45.528;9.234;2023-02-15T12:21:15;22.40;69.20
40670;DHT22;26355;45.528;9.234;2023-02-15T12:23:51;22.30;68.80
40670;DHT22;26355;45.528;9.234;2023-02-15T12:26:54;22.20;70.00
40670;DHT22;26355;45.528;9.234;2023-02-15T12:29:15;22.10;70.40
40670;DHT22;26355;45.528;9.234;2023-02-15T12:31:43;22.00;70.30
40670;DHT22;26355;45.528;9.234;2023-02-15T12:34:10;21.90;70.80
40670;DHT22;26355;45.528;9.234;2023-02-15T12:36:41;21.80;71.00
40670;DHT22;26355;45.528;9.234;2023-02-15T12:41:38;21.70;69.80
40670;DHT22;26355;45.528;9.234;2023-02-15T12:44:16;21.70;71.30
40670;DHT22;26355;45.528;9.234;2023-02-15T12:46:48;21.70;71.40
40670;DHT22;26355;45.528;9.234;2023-02-15T12:49:21;21.50;71.70
40670;DHT22;26355;45.528;9.234;2023-02-15T12:51:50;21.40;71.30
40670;DHT22;26355;45.528;9.234;2023-02-15T12:56:55;21.20;73.20
40670;DHT22;26355;45.528;9.234;2023-02-15T12:59:22;21.20;73.10
40670;DHT22;26355;45.528;9.234;2023-02-15T13:01:48;21.10;73.70
40670;DHT22;26355;45.528;9.234;2023-02-15T13:04:27;20.90;73.00
40670;DHT22;26355;45.528;9.234;2023-02-15T13:06:54;20.80;73.60
40670;DHT22;26355;45.528;9.234;2023-02-15T13:11:56;20.90;74.30
40670;DHT22;26355;45.528;9.234;2023-02-15T13:14:25;20.80;73.80
40670;DHT22;26355;45.528;9.234;2023-02-15T13:16:55;20.80;73.80
40670;DHT22;26355;45.528;9.234;2023-02-15T13:19:26;20.70;73.90
40670;DHT22;26355;45.528;9.234;2023-02-15T13:21:54;20.60;74.50
40670;DHT22;26355;45.528;9.234;2023-02-15T13:24:22;20.60;74.30
40670;DHT22;26355;45.528;9.234;2023-02-15T13:26:48;20.60;74.10
40670;DHT22;26355;45.528;9.234;2023-02-15T13:29:17;20.50;74.20
40670;DHT22;26355;45.528;9.234;2023-02-15T13:31:43;20.50;74.50
40670;DHT22;26355;45.528;9.234;2023-02-15T13:34:15;20.50;74.40
40670;DHT22;26355;45.528;9.234;2023-02-15T13:41:56;20.30;74.50
40670;DHT22;26355;45.528;9.234;2023-02-15T13:47:15;20.30;74.80
40670;DHT22;26355;45.528;9.234;2023-02-15T13:54:48;20.30;75.40
40670;DHT22;26355;45.528;9.234;2023-02-15T14:00:14;20.30;73.90
40670;DHT22;26355;45.528;9.234;2023-02-15T14:11:42;20.30;74.50
40670;DHT22;26355;45.528;9.234;2023-02-15T14:13:39;20.30;74.30
40670;DHT22;26355;45.528;9.234;2023-02-15T14:21:31;20.00;74.60
40670;DHT22;26355;45.528;9.234;2023-02-15T14:26:37;20.10;74.00
40670;DHT22;26355;45.528;9.234;2023-02-15T14:31:39;20.00;75.00
40670;DHT22;26355;45.528;9.234;2023-02-15T14:34:08;20.00;74.50
40670;DHT22;26355;45.528;9.234;2023-02-15T14:36:42;19.90;74.10
40670;DHT22;26355;45.528;9.234;2023-02-15T14:39:22;19.80;74.40
40670;DHT22;26355;45.528;9.234;2023-02-15T14:42:25;19.80;74.60
40670;DHT22;26355;45.528;9.234;2023-02-15T14:45:39;19.90;74.60
40670;DHT22;26355;45.528;9.234;2023-02-15T14:47:48;19.90;75.00
40670;DHT22;26355;45.528;9.234;2023-02-15T14:53:38;19.90;75.40
40670;DHT22;26355;45.528;9.234;2023-02-15T14:55:44;19.90;74.90
40670;DHT22;26355;45.528;9.234;2023-02-15T14:58:12;19.80;75.30
40670;DHT22;26355;45.528;9.234;2023-02-15T15:00:39;19.70;75.50
40670;DHT22;26355;45.528;9.234;2023-02-15T15:03:11;19.60;75.90
40670;DHT22;26355;45.528;9.234;2023-02-15T15:05:48;19.70;75.90
40670;DHT22;26355;45.528;9.234;2023-02-15T15:08:22;19.70;76.40
40670;DHT22;26355;45.528;9.234;2023-02-15T15:10:47;19.70;76.40
40670;DHT22;26355;45.528;9.234;2023-02-15T15:15:57;19.70;76.10
40670;DHT22;26355;45.528;9.234;2023-02-15T15:18:43;19.70;76.20
40670;DHT22;26355;45.528;9.234;2023-02-15T15:21:09;19.70;76.30
40670;DHT22;26355;45.528;9.234;2023-02-15T15:23:39;19.60;76.70
40670;DHT22;26355;45.528;9.234;2023-02-15T15:26:20;19.60;76.60
40670;DHT22;26355;45.528;9.234;2023-02-15T15:39:21;19.40;76.80
40670;DHT22;26355;45.528;9.234;2023-02-15T15:47:12;19.30;76.90
40670;DHT22;26355;45.528;9.234;2023-02-15T15:49:43;19.30;76.80
40670;DHT22;26355;45.528;9.234;2023-02-15T15:52:18;19.30;77.10
40670;DHT22;26355;45.528;9.234;2023-02-15T15:54:46;19.20;77.30
40670;DHT22;26355;45.528;9.234;2023-02-15T15:57:15;19.20;77.20
40670;DHT22;26355;45.528;9.234;2023-02-15T15:59:43;19.20;77.30
40670;DHT22;26355;45.528;9.234;2023-02-15T16:02:15;19.20;77.30
40670;DHT22;26355;45.528;9.234;2023-02-15T16:04:42;19.20;77.30
40670;DHT22;26355;45.528;9.234;2023-02-15T16:12:19;19.20;77.20
40670;DHT22;26355;45.528;9.234;2023-02-15T16:14:45;19.10;77.20
40670;DHT22;26355;45.528;9.234;2023-02-15T16:17:20;19.10;77.40
40670;DHT22;26355;45.528;9.234;2023-02-15T16:19:47;19.00;77.10
40670;DHT22;26355;45.528;9.234;2023-02-15T16:22:15;19.00;77.30
40670;DHT22;26355;45.528;9.234;2023-02-15T16:24:52;18.90;77.30
40670;DHT22;26355;45.528;9.234;2023-02-15T16:29:48;18.90;77.60
40670;DHT22;26355;45.528;9.234;2023-02-15T16:32:18;18.80;77.80
40670;DHT22;26355;45.528;9.234;2023-02-15T16:34:55;18.80;78.30
40670;DHT22;26355;45.528;9.234;2023-02-15T16:37:22;18.70;78.40
40670;DHT22;26355;45.528;9.234;2023-02-15T16:39:48;18.60;78.60
40670;DHT22;26355;45.528;9.234;2023-02-15T16:42:15;18.70;79.10
40670;DHT22;26355;45.528;9.234;2023-02-15T16:44:40;18.50;78.90
40670;DHT22;26355;45.528;9.234;2023-02-15T16:47:16;18.50;79.30
40670;DHT22;26355;45.528;9.234;2023-02-15T16:49:44;18.40;79.20
40670;DHT22;26355;45.528;9.234;2023-02-15T16:52:10;18.40;79.50
40670;DHT22;26355;45.528;9.234;2023-02-15T16:54:39;18.30;79.90
40670;DHT22;26355;45.528;9.234;2023-02-15T16:57:14;18.30;80.50
40670;DHT22;26355;45.528;9.234;2023-02-15T16:59:41;18.20;80.30
40670;DHT22;26355;45.528;9.234;2023-02-15T17:02:17;18.10;80.40
40670;DHT22;26355;45.528;9.234;2023-02-15T17:04:43;18.20;81.00
40670;DHT22;26355;45.528;9.234;2023-02-15T17:07:16;18.20;81.10
40670;DHT22;26355;45.528;9.234;2023-02-15T17:12:52;18.20;82.10
40670;DHT22;26355;45.528;9.234;2023-02-15T17:18:03;18.20;81.10
40670;DHT22;26355;45.528;9.234;2023-02-15T17:20:30;18.20;81.50
40670;DHT22;26355;45.528;9.234;2023-02-15T17:22:55;18.30;81.30
40670;DHT22;26355;45.528;9.234;2023-02-15T17:25:35;18.40;81.50
40670;DHT22;26355;45.528;9.234;2023-02-15T17:28:02;18.30;81.50
40670;DHT22;26355;45.528;9.234;2023-02-15T17:30:29;18.20;81.70
40670;DHT22;26355;45.528;9.234;2023-02-15T17:32:59;18.00;82.00
40670;DHT22;26355;45.528;9.234;2023-02-15T17:35:26;17.90;82.40
40670;DHT22;26355;45.528;9.234;2023-02-15T17:38:06;17.80;82.90
40670;DHT22;26355;45.528;9.234;2023-02-15T17:40:35;17.80;83.40
40670;DHT22;26355;45.528;9.234;2023-02-15T17:43:01;17.70;83.40
40670;DHT22;26355;45.528;9.234;2023-02-15T17:45:46;17.60;83.60
40670;DHT22;26355;45.528;9.234;2023-02-15T17:48:32;17.50;84.00
40670;DHT22;26355;45.528;9.234;2023-02-15T17:50:59;17.50;84.20
40670;DHT22;26355;45.528;9.234;2023-02-15T17:53:25;17.40;84.60
40670;DHT22;26355;45.528;9.234;2023-02-15T17:55:51;17.40;84.90
40670;DHT22;26355;45.528;9.234;2023-02-15T17:58:17;17.20;85.10
40670;DHT22;26355;45.528;9.234;2023-02-15T18:00:50;17.20;85.20
40670;DHT22;26355;45.528;9.234;2023-02-15T18:06:25;17.10;84.90
40670;DHT22;26355;45.528;9.234;2023-02-15T18:09:10;17.10;84.40
40670;DHT22;26355;45.528;9.234;2023-02-15T18:11:54;17.10;84.40
40670;DHT22;26355;45.528;9.234;2023-02-15T18:14:20;17.10;84.70
40670;DHT22;26355;45.528;9.234;2023-02-15T18:16:45;17.00;85.70